Time;durP1;ratioP1;P1;durP2;ratioP2;P2;SDS_P1;SDS_P2;PMS_P1;PMS_P2;Temp;Humidity;BMP_temperature;BMP_pressure;BME280_temperature;BME280_humidity;BME280_pressure;Samples;Min_cycle;Max_cycle;Signal;HPM_P1;HPM_P2
2023/03/24 00:01:24;;;;;;;0.20;0.10;;;;;;;;;;4956439;28;21313;-76
2023/03/24 00:03:51;;;;;;;0.20;0.10;;;;;;;;;;4964887;28;20460;-76
2023/03/24 00:06:17;;;;;;;0.20;0.10;;;;;;;;;;4973296;28;20693;-75
2023/03/24 00:08:46;;;;;;;0.55;0.15;;;;;;;;;;4965399;28;20733;-76
2023/03/24 00:11:13;;;;;;;0.35;0.32;;;;;;;;;;4985779;28;21033;-76
2023/03/24 00:13:39;;;;;;;0.20;0.10;;;;;;;;;;5005330;28;20407;-76
2023/03/24 00:16:07;;;;;;;0.20;0.10;;;;;;;;;;4989518;28;20108;-76
2023/03/24 00:18:33;;;;;;;0.22;0.20;;;;;;;;;;4985950;28;20052;-75
2023/03/24 00:20:59;;;;;;;0.20;0.10;;;;;;;;;;4991180;28;20418;-76
2023/03/24 00:23:26;;;;;;;0.20;0.10;;;;;;;;;;4991773;28;20038;-75
2023/03/24 00:26:19;;;;;;;0.20;0.10;;;;;;;;;;4992254;28;20061;-74
2023/03/24 00:28:46;;;;;;;0.20;0.10;;;;;;;;;;4990385;28;20081;-76
2023/03/24 00:31:13;;;;;;;0.25;0.20;;;;;;;;;;4992030;28;20062;-76
2023/03/24 00:33:40;;;;;;;0.22;0.15;;;;;;;;;;4994723;28;20053;-76
2023/03/24 00:36:07;;;;;;;0.20;0.10;;;;;;;;;;4988281;28;20556;-77
2023/03/24 00:38:33;;;;;;;0.20;0.10;;;;;;;;;;4991920;28;20038;-75
2023/03/24 00:41:00;;;;;;;0.20;0.10;;;;;;;;;;4993824;28;20042;-75
2023/03/24 00:43:27;;;;;;;0.20;0.10;;;;;;;;;;4998226;28;20030;-75
2023/03/24 00:46:01;;;;;;;0.20;0.10;;;;;;;;;;4977168;28;20133;-76
2023/03/24 00:48:27;;;;;;;0.20;0.10;;;;;;;;;;4993616;28;20054;-76
2023/03/24 00:50:53;;;;;;;0.20;0.10;;;;;;;;;;4992417;28;20399;-76
2023/03/24 00:53:22;;;;;;;0.93;0.90;;;;;;;;;;5000582;28;20531;-75
2023/03/24 00:55:48;;;;;;;0.95;0.20;;;;;;;;;;4994446;28;20654;-75
2023/03/24 00:58:20;;;;;;;0.20;0.10;;;;;;;;;;4997897;28;20093;-73
2023/03/24 01:00:47;;;;;;;0.20;0.10;;;;;;;;;;4976790;28;20038;-77
2023/03/24 01:03:14;;;;;;;0.20;0.10;;;;;;;;;;4977683;28;20041;-75
2023/03/24 01:05:41;;;;;;;0.20;0.10;;;;;;;;;;4990166;28;20515;-74
2023/03/24 01:08:07;;;;;;;0.20;0.10;;;;;;;;;;4990326;28;20046;-76
2023/03/24 01:10:48;;;;;;;0.20;0.10;;;;;;;;;;4988016;28;20137;-75
2023/03/24 01:13:14;;;;;;;0.20;0.10;;;;;;;;;;4987589;28;20042;-75
2023/03/24 01:15:41;;;;;;;0.20;0.10;;;;;;;;;;4986653;28;20042;-75
2023/03/24 01:18:08;;;;;;;0.20;0.10;;;;;;;;;;4984637;28;20058;-75
2023/03/24 01:20:35;;;;;;;0.20;0.10;;;;;;;;;;4984009;28;20046;-75
2023/03/24 01:23:04;;;;;;;0.20;0.10;;;;;;;;;;4982487;28;20038;-75
2023/03/24 01:25:30;;;;;;;0.20;0.10;;;;;;;;;;4985896;28;20061;-74
2023/03/24 01:27:56;;;;;;;0.20;0.10;;;;;;;;;;4979651;28;20085;-76
2023/03/24 01:30:23;;;;;;;0.30;0.28;;;;;;;;;;4984094;28;20649;-75
2023/03/24 01:32:50;;;;;;;0.30;0.13;;;;;;;;;;4986759;28;20402;-75
2023/03/24 01:35:16;;;;;;;0.20;0.10;;;;;;;;;;4968917;28;20052;-74
2023/03/24 01:37:42;;;;;;;0.20;0.10;;;;;;;;;;4970041;28;20495;-76
2023/03/24 01:40:10;;;;;;;0.20;0.10;;;;;;;;;;4982846;28;20042;-75
2023/03/24 01:42:37;;;;;;;0.20;0.17;;;;;;;;;;4982640;28;20144;-75
2023/03/24 01:45:22;;;;;;;0.20;0.10;;;;;;;;;;4981679;28;20749;-75
2023/03/24 01:47:48;;;;;;;0.20;0.10;;;;;;;;;;4988719;28;20471;-74
2023/03/24 01:50:14;;;;;;;0.20;0.10;;;;;;;;;;4986551;28;20120;-76
2023/03/24 01:52:41;;;;;;;0.20;0.00;;;;;;;;;;5006501;28;20423;-76
2023/03/24 01:55:11;;;;;;;0.20;0.08;;;;;;;;;;4973332;28;20049;-76
2023/03/24 01:57:40;;;;;;;0.20;0.10;;;;;;;;;;4980444;28;20489;-75
2023/03/24 02:00:11;;;;;;;0.20;0.10;;;;;;;;;;4992137;28;20038;-75
2023/03/24 02:02:38;;;;;;;0.20;0.10;;;;;;;;;;4985486;28;20042;-75
2023/03/24 02:05:07;;;;;;;0.20;0.10;;;;;;;;;;4980043;28;20041;-75
2023/03/24 02:07:39;;;;;;;0.20;0.00;;;;;;;;;;4973789;28;20042;-75
2023/03/24 02:10:12;;;;;;;0.20;0.10;;;;;;;;;;4977741;28;20038;-76
2023/03/24 02:12:38;;;;;;;0.20;0.10;;;;;;;;;;4971849;28;20103;-75
2023/03/24 02:15:05;;;;;;;0.35;0.35;;;;;;;;;;4986245;28;20038;-76
2023/03/24 02:17:42;;;;;;;0.20;0.10;;;;;;;;;;4987410;28;20049;-75
2023/03/24 02:20:31;;;;;;;0.20;0.10;;;;;;;;;;4975365;28;20107;-76
2023/03/24 02:22:57;;;;;;;0.20;0.08;;;;;;;;;;4940228;28;21029;-74
2023/03/24 02:25:32;;;;;;;0.20;0.10;;;;;;;;;;4984110;28;20046;-73
2023/03/24 02:28:04;;;;;;;0.30;0.20;;;;;;;;;;4970290;28;20667;-73
2023/03/24 02:30:30;;;;;;;0.30;0.22;;;;;;;;;;4978245;28;20773;-75
2023/03/24 02:33:02;;;;;;;0.20;0.10;;;;;;;;;;4972329;28;20132;-75
2023/03/24 02:35:41;;;;;;;0.20;0.10;;;;;;;;;;4983503;28;20045;-74
2023/03/24 02:38:18;;;;;;;0.20;0.15;;;;;;;;;;4978806;28;20266;-75
2023/03/24 02:40:56;;;;;;;0.25;0.15;;;;;;;;;;4997087;28;20437;-73
2023/03/24 02:43:30;;;;;;;0.20;0.10;;;;;;;;;;4967923;28;20042;-75
2023/03/24 02:46:31;;;;;;;0.20;0.10;;;;;;;;;;4983765;28;20073;-74
2023/03/24 02:49:03;;;;;;;0.20;0.10;;;;;;;;;;4893459;28;20047;-74
2023/03/24 02:51:38;;;;;;;0.20;0.10;;;;;;;;;;4970824;28;20049;-75
2023/03/24 02:54:16;;;;;;;0.20;0.00;;;;;;;;;;4973858;28;20297;-75
2023/03/24 02:56:42;;;;;;;0.40;0.40;;;;;;;;;;4982867;28;20144;-74
2023/03/24 02:59:24;;;;;;;0.20;0.10;;;;;;;;;;4983412;28;20042;-74
2023/03/24 03:01:58;;;;;;;0.20;0.10;;;;;;;;;;4961941;28;20038;-77
2023/03/24 03:04:26;;;;;;;0.20;0.10;;;;;;;;;;4983719;28;20045;-75
2023/03/24 03:06:55;;;;;;;0.35;0.35;;;;;;;;;;4971071;28;20052;-73
2023/03/24 03:09:22;;;;;;;0.20;0.20;;;;;;;;;;4983565;28;20042;-75
2023/03/24 03:11:51;;;;;;;0.20;0.20;;;;;;;;;;4978204;28;20046;-73
2023/03/24 03:14:24;;;;;;;0.20;0.10;;;;;;;;;;4973966;28;20080;-73
2023/03/24 03:17:00;;;;;;;0.20;0.10;;;;;;;;;;4988889;28;20167;-75
2023/03/24 03:19:35;;;;;;;0.20;0.10;;;;;;;;;;4967343;28;20046;-76
2023/03/24 03:22:03;;;;;;;0.20;0.10;;;;;;;;;;4983408;28;20042;-74
2023/03/24 03:24:34;;;;;;;0.20;0.00;;;;;;;;;;4986967;28;20415;-75
2023/03/24 03:27:02;;;;;;;0.20;0.10;;;;;;;;;;4979941;28;20441;-74
2023/03/24 03:29:32;;;;;;;0.35;0.35;;;;;;;;;;4979451;28;20038;-73
2023/03/24 03:32:06;;;;;;;0.20;0.20;;;;;;;;;;4970359;28;20514;-74
2023/03/24 03:34:38;;;;;;;0.20;0.10;;;;;;;;;;4962126;28;20259;-75
2023/03/24 03:37:07;;;;;;;0.20;0.17;;;;;;;;;;4967916;28;20418;-75
2023/03/24 03:39:36;;;;;;;0.20;0.15;;;;;;;;;;4983835;28;20034;-74
2023/03/24 03:42:03;;;;;;;0.20;0.10;;;;;;;;;;4979324;28;20124;-75
2023/03/24 03:44:30;;;;;;;0.20;0.10;;;;;;;;;;4984385;28;20054;-74
2023/03/24 03:46:56;;;;;;;0.20;0.10;;;;;;;;;;4971097;28;20057;-74
2023/03/24 03:49:24;;;;;;;0.20;0.10;;;;;;;;;;4985275;28;20160;-73
2023/03/24 03:51:51;;;;;;;0.20;0.10;;;;;;;;;;4970761;28;20038;-75
2023/03/24 03:54:17;;;;;;;0.28;0.22;;;;;;;;;;4978581;28;20286;-76
2023/03/24 03:56:45;;;;;;;0.35;0.35;;;;;;;;;;4979025;28;20050;-75
2023/03/24 03:59:23;;;;;;;0.20;0.00;;;;;;;;;;4977362;28;20406;-74
2023/03/24 04:01:49;;;;;;;0.20;0.20;;;;;;;;;;4986551;28;20041;-74
2023/03/24 04:04:32;;;;;;;0.20;0.10;;;;;;;;;;4990364;28;20042;-74
2023/03/24 04:07:08;;;;;;;0.20;0.10;;;;;;;;;;4975012;28;20499;-75
2023/03/24 04:09:42;;;;;;;0.20;0.10;;;;;;;;;;4973931;28;20057;-73
2023/03/24 04:12:20;;;;;;;0.20;0.10;;;;;;;;;;4989446;28;20041;-72
2023/03/24 04:15:06;;;;;;;0.20;0.10;;;;;;;;;;4976362;28;20494;-74
2023/03/24 04:17:42;;;;;;;0.20;0.10;;;;;;;;;;4981542;28;20040;-74
2023/03/24 04:20:15;;;;;;;0.20;0.00;;;;;;;;;;4970751;28;20048;-73
2023/03/24 04:22:48;;;;;;;0.20;0.10;;;;;;;;;;4981753;28;20569;-74
2023/03/24 04:25:23;;;;;;;0.20;0.10;;;;;;;;;;4970950;28;20049;-72
2023/03/24 04:28:03;;;;;;;0.20;0.10;;;;;;;;;;4980341;28;20524;-71
2023/03/24 04:30:42;;;;;;;0.20;0.10;;;;;;;;;;4982232;28;20495;-73
2023/03/24 04:33:21;;;;;;;0.20;0.10;;;;;;;;;;4981163;28;20050;-72
2023/03/24 04:36:15;;;;;;;0.20;0.10;;;;;;;;;;4988958;28;20560;-73
2023/03/24 04:38:44;;;;;;;0.20;0.10;;;;;;;;;;4949869;28;20054;-73
2023/03/24 04:41:10;;;;;;;0.20;0.10;;;;;;;;;;4979345;28;20057;-73
2023/03/24 04:43:37;;;;;;;0.50;0.50;;;;;;;;;;4985361;28;20034;-72
2023/03/24 04:46:05;;;;;;;0.20;0.10;;;;;;;;;;4984397;28;20047;-71
2023/03/24 04:48:31;;;;;;;0.25;0.25;;;;;;;;;;4983225;28;20671;-72
2023/03/24 04:50:59;;;;;;;0.20;0.10;;;;;;;;;;4980985;28;20129;-72
2023/03/24 04:53:25;;;;;;;1.65;1.27;;;;;;;;;;4977143;28;20356;-74
2023/03/24 04:56:02;;;;;;;0.20;0.10;;;;;;;;;;4978946;28;20158;-72
2023/03/24 04:58:28;;;;;;;0.20;0.10;;;;;;;;;;4974255;28;20049;-75
2023/03/24 05:00:55;;;;;;;0.55;0.55;;;;;;;;;;4979901;28;21221;-71
2023/03/24 05:03:21;;;;;;;0.20;0.10;;;;;;;;;;4973818;28;20531;-73
2023/03/24 05:05:49;;;;;;;0.20;0.10;;;;;;;;;;4984744;28;20129;-75
2023/03/24 05:08:15;;;;;;;0.20;0.10;;;;;;;;;;4967294;28;20496;-74
2023/03/24 05:10:41;;;;;;;0.20;0.10;;;;;;;;;;4976514;28;21081;-71
2023/03/24 05:13:08;;;;;;;0.20;0.10;;;;;;;;;;4976434;28;20057;-73
2023/03/24 05:15:34;;;;;;;0.20;0.05;;;;;;;;;;4991127;28;20144;-73
2023/03/24 05:18:01;;;;;;;0.20;0.10;;;;;;;;;;4977771;28;20070;-72
2023/03/24 05:20:27;;;;;;;0.20;0.10;;;;;;;;;;4992096;23;20050;-78
2023/03/24 05:22:53;;;;;;;0.20;0.10;;;;;;;;;;4969411;28;20136;-77
2023/03/24 05:25:20;;;;;;;0.20;0.10;;;;;;;;;;4971706;28;20038;-78
2023/03/24 05:27:46;;;;;;;0.50;0.35;;;;;;;;;;4961875;28;21298;-81
2023/03/24 05:30:12;;;;;;;0.20;0.10;;;;;;;;;;4973363;28;20034;-78
2023/03/24 05:32:38;;;;;;;0.20;0.10;;;;;;;;;;4972180;28;21231;-81
2023/03/24 05:35:05;;;;;;;0.20;0.10;;;;;;;;;;4953957;28;20045;-84
2023/03/24 05:37:31;;;;;;;0.20;0.10;;;;;;;;;;4977929;28;20046;-79
2023/03/24 05:39:57;;;;;;;0.20;0.10;;;;;;;;;;4974456;28;20051;-82
2023/03/24 05:42:24;;;;;;;0.20;0.10;;;;;;;;;;4976908;28;20049;-79
2023/03/24 05:44:50;;;;;;;0.20;0.10;;;;;;;;;;4969581;28;20038;-80
2023/03/24 05:47:18;;;;;;;0.20;0.10;;;;;;;;;;4980118;28;20128;-79
2023/03/24 05:49:45;;;;;;;0.20;0.10;;;;;;;;;;4993397;28;20042;-80
2023/03/24 05:52:13;;;;;;;0.20;0.05;;;;;;;;;;4969357;28;20698;-81
2023/03/24 05:54:39;;;;;;;0.20;0.10;;;;;;;;;;4972796;28;20034;-81
2023/03/24 05:57:09;;;;;;;0.20;0.00;;;;;;;;;;4986712;28;20601;-82
2023/03/24 05:59:36;;;;;;;0.25;0.10;;;;;;;;;;4988259;28;20041;-78
2023/03/24 06:02:02;;;;;;;0.20;0.10;;;;;;;;;;4978455;28;21164;-80
2023/03/24 06:04:29;;;;;;;0.20;0.10;;;;;;;;;;4990017;28;20029;-79
2023/03/24 06:06:57;;;;;;;0.20;0.13;;;;;;;;;;4966713;28;20049;-79
2023/03/24 06:09:24;;;;;;;0.57;0.35;;;;;;;;;;5000067;28;20620;-78
2023/03/24 06:11:50;;;;;;;1.20;1.10;;;;;;;;;;4980382;28;21291;-79
2023/03/24 06:14:16;;;;;;;0.20;0.10;;;;;;;;;;4979590;28;20042;-79
2023/03/24 06:16:42;;;;;;;0.22;0.22;;;;;;;;;;4982049;28;20421;-79
2023/03/24 06:19:08;;;;;;;0.20;0.10;;;;;;;;;;4984032;28;20513;-80
2023/03/24 06:21:34;;;;;;;0.20;0.20;;;;;;;;;;4981469;28;20129;-81
2023/03/24 06:24:00;;;;;;;0.20;0.10;;;;;;;;;;4989440;28;20041;-80
2023/03/24 06:26:29;;;;;;;0.20;0.10;;;;;;;;;;4979765;28;20047;-85
2023/03/24 06:28:55;;;;;;;0.20;0.10;;;;;;;;;;4981492;28;20394;-79
2023/03/24 06:31:22;;;;;;;0.20;0.10;;;;;;;;;;4986846;28;20588;-80
2023/03/24 06:33:49;;;;;;;0.20;0.10;;;;;;;;;;4987000;28;20048;-81
2023/03/24 06:36:15;;;;;;;0.40;0.30;;;;;;;;;;4984941;28;20049;-79
2023/03/24 06:38:41;;;;;;;0.20;0.10;;;;;;;;;;4972436;28;20052;-78
2023/03/24 06:41:07;;;;;;;0.20;0.10;;;;;;;;;;4986184;28;20049;-79
2023/03/24 06:43:34;;;;;;;0.90;0.85;;;;;;;;;;4984343;28;20046;-78
2023/03/24 06:46:00;;;;;;;0.20;0.10;;;;;;;;;;4984580;28;20434;-80
2023/03/24 06:48:26;;;;;;;0.30;0.20;;;;;;;;;;4989838;28;20411;-78
2023/03/24 06:50:52;;;;;;;0.20;0.10;;;;;;;;;;4985718;28;20109;-78
2023/03/24 06:53:20;;;;;;;0.20;0.10;;;;;;;;;;4979535;28;20054;-81
2023/03/24 06:55:47;;;;;;;0.20;0.10;;;;;;;;;;4980766;28;20202;-77
2023/03/24 06:58:13;;;;;;;0.20;0.10;;;;;;;;;;4973640;28;20048;-79
2023/03/24 07:00:40;;;;;;;0.20;0.10;;;;;;;;;;4988985;28;20077;-80
2023/03/24 07:03:07;;;;;;;0.20;0.10;;;;;;;;;;4986063;28;20030;-82
2023/03/24 07:05:37;;;;;;;0.45;0.30;;;;;;;;;;4982719;28;20129;-83
2023/03/24 07:08:04;;;;;;;0.60;0.45;;;;;;;;;;4981092;28;20506;-80
2023/03/24 07:10:30;;;;;;;0.20;0.10;;;;;;;;;;4975679;28;20045;-78
2023/03/24 07:12:56;;;;;;;0.20;0.20;;;;;;;;;;4973202;28;20465;-82
2023/03/24 07:15:22;;;;;;;0.20;0.10;;;;;;;;;;4990551;28;20046;-81
2023/03/24 07:17:49;;;;;;;0.20;0.10;;;;;;;;;;4974547;28;20107;-83
2023/03/24 07:20:15;;;;;;;0.20;0.10;;;;;;;;;;4977706;28;20262;-79
2023/03/24 07:22:41;;;;;;;0.20;0.10;;;;;;;;;;4966412;28;21785;-83
2023/03/24 07:25:07;;;;;;;0.20;0.10;;;;;;;;;;4974938;28;20038;-78
2023/03/24 07:27:34;;;;;;;0.35;0.35;;;;;;;;;;4980612;28;20038;-80
2023/03/24 07:30:00;;;;;;;0.20;0.10;;;;;;;;;;4983126;28;20038;-78
2023/03/24 07:32:28;;;;;;;0.20;0.10;;;;;;;;;;4982239;28;20135;-78
2023/03/24 07:34:54;;;;;;;0.25;0.25;;;;;;;;;;4971770;28;20125;-81
2023/03/24 07:37:20;;;;;;;0.20;0.20;;;;;;;;;;4953930;28;20128;-80
2023/03/24 07:39:46;;;;;;;0.20;0.10;;;;;;;;;;4978875;28;20067;-79
2023/03/24 07:42:12;;;;;;;0.20;0.10;;;;;;;;;;4980524;28;20050;-79
2023/03/24 07:44:38;;;;;;;0.20;0.10;;;;;;;;;;4978680;28;20045;-80
2023/03/24 07:47:04;;;;;;;2.15;1.85;;;;;;;;;;4982991;28;20038;-82
2023/03/24 07:49:30;;;;;;;0.20;0.10;;;;;;;;;;4979040;28;20513;-81
2023/03/24 07:51:57;;;;;;;0.60;0.60;;;;;;;;;;4980692;28;20038;-79
2023/03/24 07:54:24;;;;;;;0.57;0.57;;;;;;;;;;4977994;28;20470;-79
2023/03/24 07:56:50;;;;;;;0.20;0.08;;;;;;;;;;4982109;28;20312;-80
2023/03/24 07:59:16;;;;;;;0.20;0.10;;;;;;;;;;4973326;28;20373;-81
2023/03/24 08:01:43;;;;;;;0.20;0.10;;;;;;;;;;4977935;28;20128;-77
2023/03/24 08:04:12;;;;;;;1.55;1.05;;;;;;;;;;4971854;28;20041;-79
2023/03/24 08:06:39;;;;;;;0.20;0.10;;;;;;;;;;4977338;28;20142;-78
2023/03/24 08:09:05;;;;;;;0.20;0.10;;;;;;;;;;4974237;28;20092;-78
2023/03/24 08:11:31;;;;;;;0.20;0.10;;;;;;;;;;4984151;28;20064;-78
2023/03/24 08:13:58;;;;;;;0.20;0.20;;;;;;;;;;4986328;28;20122;-80
2023/03/24 08:16:24;;;;;;;0.20;0.10;;;;;;;;;;4984665;28;20038;-78
2023/03/24 08:18:50;;;;;;;0.20;0.10;;;;;;;;;;4983687;28;20147;-76
2023/03/24 08:21:16;;;;;;;0.20;0.10;;;;;;;;;;4982793;28;20093;-79
2023/03/24 08:23:42;;;;;;;0.20;0.10;;;;;;;;;;4981801;28;20607;-79
2023/03/24 08:26:11;;;;;;;0.50;0.38;;;;;;;;;;4980827;28;20125;-81
2023/03/24 08:28:37;;;;;;;0.63;0.63;;;;;;;;;;4982511;28;20076;-78
2023/03/24 08:31:04;;;;;;;0.20;0.10;;;;;;;;;;4970015;28;20045;-79
2023/03/24 08:33:30;;;;;;;0.20;0.10;;;;;;;;;;4986111;28;20045;-79
2023/03/24 08:35:56;;;;;;;0.20;0.10;;;;;;;;;;4983753;28;20041;-80
2023/03/24 08:38:29;;;;;;;1.17;1.08;;;;;;;;;;4988595;28;20041;-79
2023/03/24 08:40:55;;;;;;;;;;;;;;;;;;4969664;28;20080;-79
2023/03/24 08:43:22;;;;;;;0.20;0.20;;;;;;;;;;4975141;28;19930;-79
2023/03/24 08:45:48;;;;;;;0.55;0.25;;;;;;;;;;4972208;28;20033;-79
2023/03/24 08:48:14;;;;;;;1.65;1.55;;;;;;;;;;4995816;28;20036;-79
2023/03/24 08:50:40;;;;;;;0.20;0.10;;;;;;;;;;4988682;28;20046;-80
2023/03/24 08:53:07;;;;;;;0.20;0.10;;;;;;;;;;4984211;28;20055;-78
2023/03/24 08:55:33;;;;;;;0.20;0.10;;;;;;;;;;4982288;28;20104;-78
2023/03/24 08:57:59;;;;;;;0.20;0.10;;;;;;;;;;4988939;28;20551;-78
2023/03/24 09:00:27;;;;;;;0.20;0.10;;;;;;;;;;4994073;28;20065;-80
2023/03/24 09:02:54;;;;;;;0.20;0.05;;;;;;;;;;4970530;28;20042;-79
2023/03/24 09:05:21;;;;;;;0.20;0.10;;;;;;;;;;4985732;28;20038;-78
2023/03/24 09:07:47;;;;;;;0.68;0.68;;;;;;;;;;4987954;28;20048;-80
2023/03/24 09:10:14;;;;;;;0.38;0.35;;;;;;;;;;4994333;28;20133;-78
2023/03/24 09:12:41;;;;;;;0.20;0.10;;;;;;;;;;4993067;28;20074;-77
2023/03/24 09:15:08;;;;;;;0.52;0.20;;;;;;;;;;4984268;28;20140;-79
2023/03/24 09:17:34;;;;;;;0.20;0.10;;;;;;;;;;4984288;28;20076;-80
2023/03/24 09:20:01;;;;;;;0.20;0.10;;;;;;;;;;4978486;28;20049;-84
2023/03/24 09:22:27;;;;;;;0.20;0.10;;;;;;;;;;4986525;28;20038;-81
2023/03/24 09:24:53;;;;;;;0.20;0.10;;;;;;;;;;4983696;28;20042;-78
2023/03/24 09:27:19;;;;;;;0.20;0.10;;;;;;;;;;4981370;28;20111;-79
2023/03/24 09:29:45;;;;;;;0.20;0.10;;;;;;;;;;4989334;28;20041;-78
2023/03/24 09:32:11;;;;;;;0.20;0.10;;;;;;;;;;4980878;28;20140;-77
2023/03/24 09:34:37;;;;;;;0.20;0.10;;;;;;;;;;4967958;28;20037;-79
2023/03/24 09:37:04;;;;;;;0.20;0.10;;;;;;;;;;4991230;28;20044;-80
2023/03/24 09:39:30;;;;;;;0.43;0.43;;;;;;;;;;4964487;28;20118;-80
2023/03/24 09:41:56;;;;;;;0.20;0.10;;;;;;;;;;4985580;28;20655;-79
2023/03/24 09:44:22;;;;;;;0.20;0.20;;;;;;;;;;4991402;28;20038;-79
2023/03/24 09:46:50;;;;;;;0.20;0.10;;;;;;;;;;4995398;28;20290;-81
2023/03/24 09:49:22;;;;;;;0.20;0.10;;;;;;;;;;4985793;28;20037;-79
2023/03/24 09:51:49;;;;;;;0.20;0.20;;;;;;;;;;4988163;28;20141;-78
2023/03/24 09:54:15;;;;;;;0.25;0.20;;;;;;;;;;4984074;28;20045;-77
2023/03/24 09:56:44;;;;;;;0.20;0.20;;;;;;;;;;4973482;28;20057;-78
2023/03/24 09:59:10;;;;;;;0.20;0.10;;;;;;;;;;4986587;28;20044;-81
2023/03/24 10:01:36;;;;;;;0.40;0.40;;;;;;;;;;4991117;28;20042;-76
2023/03/24 10:04:02;;;;;;;0.20;0.10;;;;;;;;;;4988612;28;20041;-80
2023/03/24 10:06:31;;;;;;;0.20;0.10;;;;;;;;;;4988979;28;20625;-79
2023/03/24 10:09:00;;;;;;;0.20;0.20;;;;;;;;;;4990891;28;20072;-76
2023/03/24 10:11:34;;;;;;;0.20;0.10;;;;;;;;;;4992901;28;20327;-77
2023/03/24 10:14:12;;;;;;;0.20;0.10;;;;;;;;;;4991765;28;20518;-79
2023/03/24 10:16:48;;;;;;;0.20;0.10;;;;;;;;;;4988602;28;20078;-79
2023/03/24 10:19:33;;;;;;;0.20;0.10;;;;;;;;;;4978404;28;20453;-78
2023/03/24 10:22:19;;;;;;;0.20;0.10;;;;;;;;;;4978001;28;20046;-76
2023/03/24 10:24:52;;;;;;;0.50;0.50;;;;;;;;;;4972648;28;20137;-79
2023/03/24 10:27:18;;;;;;;;;;;;;;;;;;4966929;28;20414;-77
2023/03/24 10:29:45;;;;;;;0.20;0.10;;;;;;;;;;4981197;28;20908;-77
2023/03/24 10:32:14;;;;;;;3.03;1.65;;;;;;;;;;4984993;28;20053;-76
2023/03/24 10:34:43;;;;;;;0.20;0.10;;;;;;;;;;4983726;28;20049;-79
2023/03/24 10:37:10;;;;;;;0.28;0.25;;;;;;;;;;4992045;28;20050;-79
2023/03/24 10:39:36;;;;;;;1.45;1.27;;;;;;;;;;4989517;28;20048;-78
2023/03/24 10:42:04;;;;;;;0.20;0.10;;;;;;;;;;4990058;28;20057;-77
2023/03/24 10:44:30;;;;;;;0.20;0.10;;;;;;;;;;4987365;28;20145;-78
2023/03/24 10:46:58;;;;;;;0.20;0.10;;;;;;;;;;4990352;28;20277;-78
2023/03/24 10:49:25;;;;;;;0.20;0.10;;;;;;;;;;4984441;28;20030;-79
2023/03/24 10:51:55;;;;;;;1.75;0.80;;;;;;;;;;4976460;28;20070;-77
2023/03/24 10:54:21;;;;;;;0.68;0.68;;;;;;;;;;4985374;28;20185;-78
2023/03/24 10:56:49;;;;;;;0.20;0.10;;;;;;;;;;4974811;28;20121;-78
2023/03/24 10:59:19;;;;;;;0.20;0.10;;;;;;;;;;4989181;28;20530;-78
2023/03/24 11:01:45;;;;;;;0.20;0.10;;;;;;;;;;4994618;28;20371;-78
2023/03/24 11:04:13;;;;;;;0.20;0.10;;;;;;;;;;4977911;28;20038;-78
2023/03/24 11:06:53;;;;;;;0.20;0.10;;;;;;;;;;4988153;28;20038;-79
2023/03/24 11:09:21;;;;;;;0.43;0.30;;;;;;;;;;4989656;28;20034;-79
2023/03/24 11:11:48;;;;;;;0.20;0.10;;;;;;;;;;4988862;28;20702;-81
2023/03/24 11:14:24;;;;;;;0.20;0.10;;;;;;;;;;4998869;28;20104;-78
2023/03/24 11:16:50;;;;;;;0.20;0.10;;;;;;;;;;4990316;28;20058;-80
2023/03/24 11:19:23;;;;;;;0.22;0.22;;;;;;;;;;4976585;28;20164;-79
2023/03/24 11:21:51;;;;;;;0.20;0.10;;;;;;;;;;5001647;23;20054;-74
2023/03/24 11:24:18;;;;;;;1.13;1.00;;;;;;;;;;4988438;28;20084;-73
2023/03/24 11:26:46;;;;;;;0.20;0.10;;;;;;;;;;4974931;28;20539;-74
2023/03/24 11:29:14;;;;;;;1.38;1.08;;;;;;;;;;4981055;28;20137;-76
2023/03/24 11:31:41;;;;;;;0.20;0.10;;;;;;;;;;4954235;28;20078;-72
2023/03/24 11:34:10;;;;;;;0.20;0.10;;;;;;;;;;4967812;28;20054;-72
2023/03/24 11:36:38;;;;;;;0.20;0.10;;;;;;;;;;4969375;28;20065;-73
2023/03/24 11:39:11;;;;;;;0.20;0.10;;;;;;;;;;4975535;28;20073;-74
2023/03/24 11:41:57;;;;;;;0.20;0.10;;;;;;;;;;4987469;28;20066;-74
2023/03/24 11:44:24;;;;;;;0.20;0.10;;;;;;;;;;4968859;28;20610;-73
2023/03/24 11:46:53;;;;;;;0.40;0.30;;;;;;;;;;4971535;28;20042;-73
2023/03/24 11:49:21;;;;;;;0.20;0.10;;;;;;;;;;4969027;28;20069;-75
2023/03/24 11:51:49;;;;;;;0.20;0.10;;;;;;;;;;4977685;28;20078;-74
2023/03/24 11:54:17;;;;;;;26.50;0.80;;;;;;;;;;4960889;28;20056;-71
2023/03/24 11:56:49;;;;;;;0.20;0.10;;;;;;;;;;4969634;28;20590;-71
2023/03/24 11:59:18;;;;;;;0.20;0.10;;;;;;;;;;4972900;28;20557;-71
2023/03/24 12:02:10;;;;;;;0.20;0.10;;;;;;;;;;4971512;28;20301;-71
2023/03/24 12:04:41;;;;;;;0.20;0.10;;;;;;;;;;4957636;28;20414;-72
2023/03/24 12:07:13;;;;;;;2.13;1.65;;;;;;;;;;4978783;28;20089;-74
2023/03/24 12:09:58;;;;;;;0.20;0.10;;;;;;;;;;4973868;28;20074;-74
2023/03/24 12:12:37;;;;;;;0.20;0.10;;;;;;;;;;4981737;28;20982;-74
2023/03/24 12:15:17;;;;;;;0.20;0.10;;;;;;;;;;4976727;28;20053;-73
2023/03/24 12:17:56;;;;;;;0.20;0.20;;;;;;;;;;4977257;28;20050;-72
2023/03/24 12:20:32;;;;;;;0.82;0.25;;;;;;;;;;4977772;28;20046;-74
2023/03/24 12:23:01;;;;;;;0.20;0.10;;;;;;;;;;4978048;28;20094;-73
2023/03/24 12:25:47;;;;;;;1.00;1.00;;;;;;;;;;4978966;28;20042;-72
2023/03/24 12:28:37;;;;;;;0.20;0.20;;;;;;;;;;4980203;28;20073;-71
2023/03/24 12:31:12;;;;;;;0.75;0.75;;;;;;;;;;4977751;28;20035;-73
2023/03/24 12:33:58;;;;;;;0.20;0.10;;;;;;;;;;4978148;28;20042;-73
2023/03/24 12:36:43;;;;;;;0.20;0.10;;;;;;;;;;4996567;28;20380;-73
2023/03/24 12:39:11;;;;;;;0.20;0.10;;;;;;;;;;4978151;28;20041;-70
2023/03/24 12:41:43;;;;;;;0.73;0.73;;;;;;;;;;4978120;28;20044;-73
2023/03/24 12:44:21;;;;;;;0.20;0.10;;;;;;;;;;4982535;28;20793;-72
2023/03/24 12:47:11;;;;;;;3.92;1.33;;;;;;;;;;4979998;28;20039;-71
2023/03/24 12:49:46;;;;;;;0.20;0.10;;;;;;;;;;4980513;28;20044;-74
2023/03/24 12:52:21;;;;;;;0.20;0.08;;;;;;;;;;4977933;28;20038;-73
2023/03/24 12:55:03;;;;;;;0.20;0.10;;;;;;;;;;4995068;28;20731;-74
2023/03/24 12:57:32;;;;;;;0.20;0.10;;;;;;;;;;4964493;28;20401;-73
2023/03/24 13:00:16;;;;;;;0.20;0.10;;;;;;;;;;4961941;28;20116;-73
2023/03/24 13:02:45;;;;;;;0.20;0.10;;;;;;;;;;4980818;28;20058;-73
2023/03/24 13:05:22;;;;;;;0.30;0.30;;;;;;;;;;4980953;28;20451;-74
2023/03/24 13:07:52;;;;;;;0.20;0.10;;;;;;;;;;4978548;28;20050;-75
2023/03/24 13:10:25;;;;;;;0.20;0.10;;;;;;;;;;4976014;28;20049;-74
2023/03/24 13:12:59;;;;;;;0.82;0.77;;;;;;;;;;4968957;28;20136;-73
2023/03/24 13:15:30;;;;;;;0.20;0.10;;;;;;;;;;4972667;28;20522;-74
2023/03/24 13:17:59;;;;;;;0.20;0.10;;;;;;;;;;4973931;28;20042;-73
2023/03/24 13:20:27;;;;;;;0.20;0.10;;;;;;;;;;4956807;28;20046;-73
2023/03/24 13:22:54;;;;;;;0.20;0.10;;;;;;;;;;4961454;28;20050;-73
2023/03/24 13:25:30;;;;;;;0.35;0.35;;;;;;;;;;4968339;28;20537;-72
2023/03/24 13:27:57;;;;;;;0.20;0.10;;;;;;;;;;4953932;28;21025;-72
2023/03/24 13:30:30;;;;;;;0.20;0.10;;;;;;;;;;4989839;28;20049;-72
2023/03/24 13:32:59;;;;;;;0.20;0.10;;;;;;;;;;4965365;28;20046;-70
2023/03/24 13:35:45;;;;;;;0.20;0.10;;;;;;;;;;4975131;28;20069;-73
2023/03/24 13:38:14;;;;;;;0.20;0.10;;;;;;;;;;4959502;28;20096;-72
2023/03/24 13:40:40;;;;;;;0.20;0.10;;;;;;;;;;4974507;28;20108;-71
2023/03/24 13:43:10;;;;;;;0.20;0.10;;;;;;;;;;4968431;28;20574;-73
2023/03/24 13:45:41;;;;;;;0.20;0.10;;;;;;;;;;4973222;28;20117;-74
2023/03/24 13:48:10;;;;;;;0.20;0.10;;;;;;;;;;4975500;28;20046;-74
2023/03/24 13:50:42;;;;;;;0.43;0.43;;;;;;;;;;4972794;28;20038;-73
2023/03/24 13:53:14;;;;;;;0.20;0.10;;;;;;;;;;4966188;28;20379;-72
2023/03/24 13:55:46;;;;;;;0.20;0.20;;;;;;;;;;4989591;28;20046;-74
2023/03/24 13:58:16;;;;;;;0.20;0.10;;;;;;;;;;4958881;28;20138;-72
2023/03/24 14:01:01;;;;;;;0.20;0.10;;;;;;;;;;4974413;28;20514;-72
2023/03/24 14:03:35;;;;;;;0.20;0.05;;;;;;;;;;4976938;28;20430;-72
2023/03/24 14:06:08;;;;;;;0.20;0.10;;;;;;;;;;4964840;28;20541;-73
2023/03/24 14:08:33;;;;;;;;;;;;;;;;;;4954045;28;20092;-74
2023/03/24 14:10:59;;;;;;;0.20;0.10;;;;;;;;;;4971753;28;19921;-73
2023/03/24 14:13:36;;;;;;;0.20;0.10;;;;;;;;;;4955528;28;20133;-74
2023/03/24 14:16:23;;;;;;;0.20;0.10;;;;;;;;;;4989509;28;20519;-75
2023/03/24 14:18:49;;;;;;;0.20;0.10;;;;;;;;;;4961898;28;20456;-75
2023/03/24 14:21:15;;;;;;;0.20;0.10;;;;;;;;;;4976266;28;20561;-73
2023/03/24 14:23:47;;;;;;;0.20;0.10;;;;;;;;;;4974391;28;20430;-73
2023/03/24 14:26:22;;;;;;;0.20;0.10;;;;;;;;;;4971476;28;20431;-72
2023/03/24 14:28:52;;;;;;;0.35;0.35;;;;;;;;;;4971364;28;20038;-73
2023/03/24 14:31:31;;;;;;;0.20;0.10;;;;;;;;;;4971577;28;20038;-74
2023/03/24 14:34:06;;;;;;;0.20;0.10;;;;;;;;;;4971373;28;20101;-74
2023/03/24 14:36:38;;;;;;;0.20;0.10;;;;;;;;;;4975315;28;20053;-73
2023/03/24 14:39:23;;;;;;;0.20;0.10;;;;;;;;;;4975002;28;20046;-71
2023/03/24 14:41:51;;;;;;;0.20;0.20;;;;;;;;;;4969098;28;20042;-74
2023/03/24 14:44:36;;;;;;;1.35;1.08;;;;;;;;;;4972332;28;20121;-73
2023/03/24 14:47:03;;;;;;;0.20;0.10;;;;;;;;;;4974158;28;20042;-73
2023/03/24 14:49:31;;;;;;;0.20;0.10;;;;;;;;;;4958446;28;20055;-72
2023/03/24 14:51:57;;;;;;;0.20;0.10;;;;;;;;;;4972668;28;20562;-75
2023/03/24 14:54:44;;;;;;;0.90;0.73;;;;;;;;;;4970868;28;20042;-73
2023/03/24 14:57:16;;;;;;;0.20;0.10;;;;;;;;;;4972619;28;20133;-71
2023/03/24 14:59:47;;;;;;;0.20;0.10;;;;;;;;;;4969150;28;20129;-70